Asotin, WA (99402)

10:56 AM PDT on June 02, 2015 (GMT -0700)
Nick's Weather Station | | Change Station
CLOSE
Current Station
Personal Weather Station
Location: Lewiston, ID
Elevation: 1076 ft
Nearby Weather Stations

Elev 1076 ft 46.37 °N, 117.04 °W | Updated 16 minutes ago

Partly Cloudy
Partly Cloudy
67.7 °F
Feels Like 67.7 °F
N
1.1
Wind Variable Wind from NNW
Gusts 1.1 mph

Today
High -- | Low -- °F
--% Chance of Precip.
Yesterday
High -- | Low -- °F
Precip. -- in
4:59 AM 8:33 PM
Full, 100% visible
Pressure 29.95 in
Visibility 10.0 miles
Clouds Few 5000 ft
Dew Point 58 °F
Humidity 70%
Rainfall 0.11 in
Snow Depth Not available.
UV 7 out of 12
Pollen 5.30 out of 12
Air Quality Not available.
Flu Activity Sporadic
METAR KLWS 021656Z 07004KT 10SM FEW050 17/13 A2996 RMK AO2 SLP141 T01720133

More Conditions Fewer Conditions

Pressure 29.95 in
Visibility 10.0 miles
Clouds Few 5000 ft
Dew Point 58 °F
Humidity 70%
Rainfall 0.11 in
Snow Depth Not available.
UV 7 out of 12
Pollen 5.30 out of 12
Air Quality Not available.
Flu Activity Sporadic
METAR KLWS 021656Z 07004KT 10SM FEW050 17/13 A2996 RMK AO2 SLP141 T01720133

More Conditions Fewer Conditions

10-Day Weather Forecast

×

Almanac

Astronomy

Jun. 02, 2015 Rise Set
Actual Time
Civil Twilight
Nautical Twilight
Astronomical Twilight
Moon
Length of Visible Light
Length of Day
Tomorrow will be .
, % of the Moon is Illuminated

Today's Extremes

State Highs State Lows

Community

WunderPhotos

Upload Photos

1,825,988 photos uploaded!

WunderBlogs® & News

Nearby

Air Quality

  Air Quality AQ Index Pollutant
Not available.

Snow Depth

Station Depth Elevation

Earthquake Activity

City Distance Mag. Time & Date
Minimum magnitude displayed is 2.5.

Coastal Water Temperatures

Place Temperature

Stations

Nearby Weather Stations

Station Location Temp. Windchill Dew Point Humidity Wind Precip. Elev Updated Type